sensor_id;sensor_type;location;lat;lon;timestamp;pressure;altitude;pressure_sealevel;temperature;humidity
10462;BME280;5278;42.656;23.374;2023-03-19T00:01:54;95184.69;;;5.40;63.60
10462;BME280;5278;42.656;23.374;2023-03-19T00:04:21;95181.16;;;5.41;63.79
10462;BME280;5278;42.656;23.374;2023-03-19T00:06:50;95176.72;;;5.43;64.28
10462;BME280;5278;42.656;23.374;2023-03-19T00:09:18;95174.91;;;5.43;64.42
10462;BME280;5278;42.656;23.374;2023-03-19T00:11:45;95168.97;;;5.43;64.27
10462;BME280;5278;42.656;23.374;2023-03-19T00:14:12;95170.34;;;5.47;63.90
10462;BME280;5278;42.656;23.374;2023-03-19T00:16:39;95173.16;;;5.44;65.38
10462;BME280;5278;42.656;23.374;2023-03-19T00:19:07;95165.28;;;5.36;65.72
10462;BME280;5278;42.656;23.374;2023-03-19T00:21:34;95166.22;;;5.35;65.99
10462;BME280;5278;42.656;23.374;2023-03-19T00:24:03;95159.97;;;5.28;66.48
10462;BME280;5278;42.656;23.374;2023-03-19T00:26:32;95160.22;;;5.25;67.21
10462;BME280;5278;42.656;23.374;2023-03-19T00:29:00;95097.38;;;4.76;67.24
10462;BME280;5278;42.656;23.374;2023-03-19T00:31:28;95157.97;;;5.10;68.17
10462;BME280;5278;42.656;23.374;2023-03-19T00:33:56;95152.00;;;5.10;67.21
10462;BME280;5278;42.656;23.374;2023-03-19T00:36:24;95152.41;;;5.05;67.09
10462;BME280;5278;42.656;23.374;2023-03-19T00:38:51;95143.03;;;5.04;66.58
10462;BME280;5278;42.656;23.374;2023-03-19T00:41:20;95150.59;;;4.96;66.27
10462;BME280;5278;42.656;23.374;2023-03-19T00:43:52;95155.69;;;4.87;65.73
10462;BME280;5278;42.656;23.374;2023-03-19T00:46:19;95144.63;;;4.75;66.71
10462;BME280;5278;42.656;23.374;2023-03-19T00:48:47;95144.19;;;4.70;65.71
10462;BME280;5278;42.656;23.374;2023-03-19T00:51:15;95140.94;;;4.68;65.74
10462;BME280;5278;42.656;23.374;2023-03-19T00:53:42;95147.16;;;4.65;66.03
10462;BME280;5278;42.656;23.374;2023-03-19T00:56:11;95143.81;;;4.54;66.58
10462;BME280;5278;42.656;23.374;2023-03-19T00:58:41;95142.75;;;4.56;67.38
10462;BME280;5278;42.656;23.374;2023-03-19T01:01:08;95139.09;;;4.59;66.15
10462;BME280;5278;42.656;23.374;2023-03-19T01:03:36;95134.94;;;4.58;66.17
10462;BME280;5278;42.656;23.374;2023-03-19T01:06:04;95135.97;;;4.55;66.08
10462;BME280;5278;42.656;23.374;2023-03-19T01:08:31;95134.66;;;4.61;66.00
10462;BME280;5278;42.656;23.374;2023-03-19T01:11:04;95133.59;;;4.63;65.76
10462;BME280;5278;42.656;23.374;2023-03-19T01:13:31;95136.84;;;4.65;65.21
10462;BME280;5278;42.656;23.374;2023-03-19T01:16:00;95136.97;;;4.64;65.45
10462;BME280;5278;42.656;23.374;2023-03-19T01:18:27;95124.63;;;4.58;66.24
10462;BME280;5278;42.656;23.374;2023-03-19T01:20:55;95132.59;;;4.55;67.23
10462;BME280;5278;42.656;23.374;2023-03-19T01:23:22;95122.13;;;4.47;67.28
10462;BME280;5278;42.656;23.374;2023-03-19T01:25:49;95124.38;;;4.61;67.50
10462;BME280;5278;42.656;23.374;2023-03-19T01:28:16;95125.75;;;4.65;67.38
10462;BME280;5278;42.656;23.374;2023-03-19T01:30:43;95125.31;;;4.60;67.47
10462;BME280;5278;42.656;23.374;2023-03-19T01:33:12;95119.94;;;4.63;68.09
10462;BME280;5278;42.656;23.374;2023-03-19T01:35:39;95125.06;;;4.63;68.55
10462;BME280;5278;42.656;23.374;2023-03-19T01:38:06;95130.00;;;4.55;67.90
10462;BME280;5278;42.656;23.374;2023-03-19T01:40:33;95126.50;;;4.56;67.31
10462;BME280;5278;42.656;23.374;2023-03-19T01:43:22;95117.66;;;4.49;67.11
10462;BME280;5278;42.656;23.374;2023-03-19T01:45:52;95124.47;;;4.39;67.39
10462;BME280;5278;42.656;23.374;2023-03-19T01:48:28;95112.81;;;4.34;67.27
10462;BME280;5278;42.656;23.374;2023-03-19T01:50:58;95123.31;;;4.43;67.38
10462;BME280;5278;42.656;23.374;2023-03-19T01:53:29;95124.91;;;4.44;67.79
10462;BME280;5278;42.656;23.374;2023-03-19T01:56:02;95126.94;;;4.40;68.34
10462;BME280;5278;42.656;23.374;2023-03-19T01:58:32;95131.25;;;4.40;68.61
10462;BME280;5278;42.656;23.374;2023-03-19T02:01:00;95123.00;;;4.36;68.24
10462;BME280;5278;42.656;23.374;2023-03-19T02:03:29;95125.56;;;4.36;68.93
10462;BME280;5278;42.656;23.374;2023-03-19T02:05:58;95122.28;;;4.34;68.79
10462;BME280;5278;42.656;23.374;2023-03-19T02:08:26;95137.59;;;4.36;68.93
10462;BME280;5278;42.656;23.374;2023-03-19T02:10:55;95120.09;;;4.29;69.16
10462;BME280;5278;42.656;23.374;2023-03-19T02:13:24;95130.00;;;4.34;68.83
10462;BME280;5278;42.656;23.374;2023-03-19T02:15:51;95133.75;;;4.30;68.98
10462;BME280;5278;42.656;23.374;2023-03-19T02:18:19;95113.75;;;4.13;69.51
10462;BME280;5278;42.656;23.374;2023-03-19T02:20:50;95135.31;;;4.21;70.01
10462;BME280;5278;42.656;23.374;2023-03-19T02:23:25;95129.75;;;4.16;69.83
10462;BME280;5278;42.656;23.374;2023-03-19T02:26:15;95129.41;;;4.10;70.99
10462;BME280;5278;42.656;23.374;2023-03-19T02:28:44;95140.03;;;4.16;71.50
10462;BME280;5278;42.656;23.374;2023-03-19T02:31:13;95089.69;;;3.82;70.91
10462;BME280;5278;42.656;23.374;2023-03-19T02:33:40;95131.88;;;4.11;71.54
10462;BME280;5278;42.656;23.374;2023-03-19T02:36:09;95133.88;;;4.08;71.67
10462;BME280;5278;42.656;23.374;2023-03-19T02:38:40;95131.22;;;3.98;71.37
10462;BME280;5278;42.656;23.374;2023-03-19T02:41:09;95141.50;;;3.98;70.24
10462;BME280;5278;42.656;23.374;2023-03-19T02:43:38;95123.91;;;3.82;69.74
10462;BME280;5278;42.656;23.374;2023-03-19T02:46:08;95135.44;;;3.88;69.17
10462;BME280;5278;42.656;23.374;2023-03-19T02:48:36;95132.09;;;3.76;68.48
10462;BME280;5278;42.656;23.374;2023-03-19T02:51:04;95142.38;;;3.65;68.65
10462;BME280;5278;42.656;23.374;2023-03-19T02:53:32;95137.25;;;3.65;68.50
10462;BME280;5278;42.656;23.374;2023-03-19T02:56:00;95132.00;;;3.67;68.64
10462;BME280;5278;42.656;23.374;2023-03-19T02:58:26;95147.75;;;3.73;68.77
10462;BME280;5278;42.656;23.374;2023-03-19T03:00:55;95138.88;;;3.77;69.05
10462;BME280;5278;42.656;23.374;2023-03-19T03:03:22;95137.22;;;3.76;69.63
10462;BME280;5278;42.656;23.374;2023-03-19T03:05:48;95136.66;;;3.73;69.56
10462;BME280;5278;42.656;23.374;2023-03-19T03:08:15;95142.84;;;3.70;69.78
10462;BME280;5278;42.656;23.374;2023-03-19T03:10:43;95141.69;;;3.63;70.47
10462;BME280;5278;42.656;23.374;2023-03-19T03:13:10;95145.19;;;3.73;71.18
10462;BME280;5278;42.656;23.374;2023-03-19T03:15:38;95149.50;;;3.73;71.21
10462;BME280;5278;42.656;23.374;2023-03-19T03:18:06;95154.75;;;3.71;71.77
10462;BME280;5278;42.656;23.374;2023-03-19T03:20:34;95157.44;;;3.70;71.34
10462;BME280;5278;42.656;23.374;2023-03-19T03:23:01;95164.22;;;3.71;72.22
10462;BME280;5278;42.656;23.374;2023-03-19T03:25:31;95165.38;;;3.67;71.54
10462;BME280;5278;42.656;23.374;2023-03-19T03:27:59;95156.75;;;3.57;72.65
10462;BME280;5278;42.656;23.374;2023-03-19T03:30:26;95165.28;;;3.57;73.19
10462;BME280;5278;42.656;23.374;2023-03-19T03:32:53;95166.47;;;3.53;73.28
10462;BME280;5278;42.656;23.374;2023-03-19T03:35:22;95168.69;;;3.58;74.43
10462;BME280;5278;42.656;23.374;2023-03-19T03:37:49;95176.59;;;3.55;74.48
10462;BME280;5278;42.656;23.374;2023-03-19T03:40:16;95176.50;;;3.56;74.58
10462;BME280;5278;42.656;23.374;2023-03-19T03:42:45;95178.25;;;3.56;74.68
10462;BME280;5278;42.656;23.374;2023-03-19T03:45:12;95176.03;;;3.62;74.56
10462;BME280;5278;42.656;23.374;2023-03-19T03:47:39;95172.63;;;3.62;74.14
10462;BME280;5278;42.656;23.374;2023-03-19T03:50:07;95182.66;;;3.65;73.85
10462;BME280;5278;42.656;23.374;2023-03-19T03:52:36;95177.66;;;3.63;72.87
10462;BME280;5278;42.656;23.374;2023-03-19T03:55:04;95178.94;;;3.58;73.11
10462;BME280;5278;42.656;23.374;2023-03-19T03:57:32;95179.78;;;3.58;74.12
10462;BME280;5278;42.656;23.374;2023-03-19T03:59:58;95174.50;;;3.60;73.53
10462;BME280;5278;42.656;23.374;2023-03-19T04:02:26;95179.63;;;3.60;73.61
10462;BME280;5278;42.656;23.374;2023-03-19T04:04:53;95181.38;;;3.59;73.93
10462;BME280;5278;42.656;23.374;2023-03-19T04:07:21;95180.34;;;3.62;73.83
10462;BME280;5278;42.656;23.374;2023-03-19T04:09:49;95179.53;;;3.61;73.96
10462;BME280;5278;42.656;23.374;2023-03-19T04:12:16;95172.16;;;3.57;73.88
10462;BME280;5278;42.656;23.374;2023-03-19T04:14:43;95173.00;;;3.57;73.97
10462;BME280;5278;42.656;23.374;2023-03-19T04:17:10;95169.25;;;3.61;73.67
10462;BME280;5278;42.656;23.374;2023-03-19T04:19:37;95166.56;;;3.63;74.02
10462;BME280;5278;42.656;23.374;2023-03-19T04:22:04;95163.53;;;3.58;74.25
10462;BME280;5278;42.656;23.374;2023-03-19T04:24:32;95165.97;;;3.59;74.43
10462;BME280;5278;42.656;23.374;2023-03-19T04:27:00;95173.91;;;3.56;75.13
10462;BME280;5278;42.656;23.374;2023-03-19T04:29:27;95171.34;;;3.56;74.81
10462;BME280;5278;42.656;23.374;2023-03-19T04:31:54;95162.84;;;3.44;74.01
10462;BME280;5278;42.656;23.374;2023-03-19T04:34:21;95170.69;;;3.43;73.79
10462;BME280;5278;42.656;23.374;2023-03-19T04:36:48;95189.56;;;3.42;72.98
10462;BME280;5278;42.656;23.374;2023-03-19T04:39:16;95174.88;;;3.33;71.94
10462;BME280;5278;42.656;23.374;2023-03-19T04:41:44;95184.09;;;3.35;73.57
10462;BME280;5278;42.656;23.374;2023-03-19T04:44:12;95188.06;;;3.28;73.58
10462;BME280;5278;42.656;23.374;2023-03-19T04:46:39;95174.53;;;3.26;73.45
10462;BME280;5278;42.656;23.374;2023-03-19T04:49:06;95189.00;;;3.38;72.50
10462;BME280;5278;42.656;23.374;2023-03-19T04:51:33;95182.69;;;3.42;72.61
10462;BME280;5278;42.656;23.374;2023-03-19T04:54:00;95183.03;;;3.49;73.10
10462;BME280;5278;42.656;23.374;2023-03-19T04:56:28;95179.88;;;3.68;72.67
10462;BME280;5278;42.656;23.374;2023-03-19T04:58:55;95175.13;;;3.95;70.53
10462;BME280;5278;42.656;23.374;2023-03-19T05:01:24;95177.97;;;4.24;67.81
10462;BME280;5278;42.656;23.374;2023-03-19T05:03:51;95178.38;;;4.40;65.79
10462;BME280;5278;42.656;23.374;2023-03-19T05:06:18;95179.91;;;4.63;64.33
10462;BME280;5278;42.656;23.374;2023-03-19T05:08:46;95173.75;;;4.96;63.11
10462;BME280;5278;42.656;23.374;2023-03-19T05:11:13;95169.13;;;5.20;61.76
10462;BME280;5278;42.656;23.374;2023-03-19T05:13:40;95175.13;;;5.51;61.06
10462;BME280;5278;42.656;23.374;2023-03-19T05:16:06;95177.72;;;5.61;60.52
10462;BME280;5278;42.656;23.374;2023-03-19T05:18:35;95174.34;;;5.70;60.19
10462;BME280;5278;42.656;23.374;2023-03-19T05:21:03;95177.69;;;5.91;59.98
10462;BME280;5278;42.656;23.374;2023-03-19T05:23:31;95169.47;;;6.17;58.87
10462;BME280;5278;42.656;23.374;2023-03-19T05:25:58;95177.09;;;6.47;57.73
10462;BME280;5278;42.656;23.374;2023-03-19T05:28:26;95146.38;;;6.63;56.78
10462;BME280;5278;42.656;23.374;2023-03-19T05:30:54;95174.44;;;7.14;55.17
10462;BME280;5278;42.656;23.374;2023-03-19T05:33:21;95168.00;;;7.28;54.23
10462;BME280;5278;42.656;23.374;2023-03-19T05:35:50;95182.09;;;7.43;53.64
10462;BME280;5278;42.656;23.374;2023-03-19T05:38:17;95166.31;;;7.46;53.73
10462;BME280;5278;42.656;23.374;2023-03-19T05:40:44;95170.00;;;7.71;53.10
10462;BME280;5278;42.656;23.374;2023-03-19T05:43:12;95153.34;;;7.83;52.15
10462;BME280;5278;42.656;23.374;2023-03-19T05:45:39;95174.03;;;8.10;51.37
10462;BME280;5278;42.656;23.374;2023-03-19T05:48:06;95171.66;;;8.17;51.00
10462;BME280;5278;42.656;23.374;2023-03-19T05:50:34;95158.25;;;8.31;49.86
10462;BME280;5278;42.656;23.374;2023-03-19T05:53:03;95167.03;;;8.74;49.55
10462;BME280;5278;42.656;23.374;2023-03-19T05:55:31;95175.66;;;9.00;48.41
10462;BME280;5278;42.656;23.374;2023-03-19T05:57:58;95163.72;;;9.33;47.23
10462;BME280;5278;42.656;23.374;2023-03-19T06:00:27;95165.88;;;9.71;46.53
10462;BME280;5278;42.656;23.374;2023-03-19T06:02:54;95168.50;;;10.21;44.97
10462;BME280;5278;42.656;23.374;2023-03-19T06:05:21;95160.81;;;10.70;43.95
10462;BME280;5278;42.656;23.374;2023-03-19T06:07:48;95147.78;;;11.02;42.71
10462;BME280;5278;42.656;23.374;2023-03-19T06:10:17;95162.63;;;11.57;41.11
10462;BME280;5278;42.656;23.374;2023-03-19T06:12:44;95157.38;;;11.89;40.65
10462;BME280;5278;42.656;23.374;2023-03-19T06:15:12;95096.16;;;11.93;39.57
10462;BME280;5278;42.656;23.374;2023-03-19T06:17:39;95155.91;;;12.71;38.71
10462;BME280;5278;42.656;23.374;2023-03-19T06:20:06;95154.31;;;13.08;37.86
10462;BME280;5278;42.656;23.374;2023-03-19T06:22:33;95159.19;;;13.48;36.85
10462;BME280;5278;42.656;23.374;2023-03-19T06:25:00;95155.78;;;13.62;36.81
10462;BME280;5278;42.656;23.374;2023-03-19T06:27:29;95154.38;;;14.10;35.70
10462;BME280;5278;42.656;23.374;2023-03-19T06:29:56;95155.56;;;14.22;35.16
10462;BME280;5278;42.656;23.374;2023-03-19T06:32:23;95153.63;;;14.31;35.07
10462;BME280;5278;42.656;23.374;2023-03-19T06:34:57;95152.59;;;14.83;34.72
10462;BME280;5278;42.656;23.374;2023-03-19T06:37:24;95155.53;;;15.43;33.26
10462;BME280;5278;42.656;23.374;2023-03-19T06:39:52;95163.44;;;15.78;32.73
10462;BME280;5278;42.656;23.374;2023-03-19T06:42:20;95164.06;;;16.27;31.86
10462;BME280;5278;42.656;23.374;2023-03-19T06:44:48;95153.56;;;16.82;30.99
10462;BME280;5278;42.656;23.374;2023-03-19T06:47:15;95157.63;;;17.23;29.94
10462;BME280;5278;42.656;23.374;2023-03-19T06:49:42;95153.97;;;17.25;29.92
10462;BME280;5278;42.656;23.374;2023-03-19T06:52:10;95158.66;;;17.62;29.70
10462;BME280;5278;42.656;23.374;2023-03-19T06:54:37;95159.75;;;18.05;28.39
10462;BME280;5278;42.656;23.374;2023-03-19T06:57:04;95160.06;;;18.29;28.47
10462;BME280;5278;42.656;23.374;2023-03-19T06:59:31;95164.75;;;18.78;27.99
10462;BME280;5278;42.656;23.374;2023-03-19T07:02:00;95165.94;;;19.38;27.27
10462;BME280;5278;42.656;23.374;2023-03-19T07:04:29;95161.09;;;19.85;26.72
10462;BME280;5278;42.656;23.374;2023-03-19T07:06:56;95160.81;;;20.11;25.81
10462;BME280;5278;42.656;23.374;2023-03-19T07:09:25;95159.50;;;20.56;25.34
10462;BME280;5278;42.656;23.374;2023-03-19T07:11:52;95157.44;;;20.88;25.25
10462;BME280;5278;42.656;23.374;2023-03-19T07:14:19;95161.84;;;21.47;24.38
10462;BME280;5278;42.656;23.374;2023-03-19T07:16:46;95157.03;;;21.91;24.01
10462;BME280;5278;42.656;23.374;2023-03-19T07:19:15;95153.31;;;22.39;23.13
10462;BME280;5278;42.656;23.374;2023-03-19T07:21:41;95154.91;;;23.08;22.53
10462;BME280;5278;42.656;23.374;2023-03-19T07:24:08;95154.38;;;23.39;21.90
10462;BME280;5278;42.656;23.374;2023-03-19T07:26:35;95146.34;;;23.84;22.06
10462;BME280;5278;42.656;23.374;2023-03-19T07:29:02;95151.75;;;24.28;21.32
10462;BME280;5278;42.656;23.374;2023-03-19T07:31:30;95142.97;;;24.49;20.79
10462;BME280;5278;42.656;23.374;2023-03-19T07:33:56;95152.75;;;24.43;20.32
10462;BME280;5278;42.656;23.374;2023-03-19T07:36:25;95145.81;;;24.04;20.64
10462;BME280;5278;42.656;23.374;2023-03-19T07:38:52;95141.34;;;23.88;21.12
10462;BME280;5278;42.656;23.374;2023-03-19T07:41:19;95144.81;;;24.27;20.84
10462;BME280;5278;42.656;23.374;2023-03-19T07:43:47;95060.41;;;23.90;21.05
10462;BME280;5278;42.656;23.374;2023-03-19T07:46:14;95142.63;;;24.40;20.68
10462;BME280;5278;42.656;23.374;2023-03-19T07:48:42;95137.94;;;24.74;20.27
10462;BME280;5278;42.656;23.374;2023-03-19T07:51:09;95150.13;;;25.19;20.26
10462;BME280;5278;42.656;23.374;2023-03-19T07:53:38;95144.94;;;25.34;19.69
10462;BME280;5278;42.656;23.374;2023-03-19T07:56:05;95138.19;;;25.95;19.52
10462;BME280;5278;42.656;23.374;2023-03-19T07:58:32;95134.81;;;26.05;19.07
10462;BME280;5278;42.656;23.374;2023-03-19T08:00:59;95136.81;;;26.97;18.65
10462;BME280;5278;42.656;23.374;2023-03-19T08:03:26;95145.97;;;27.62;18.29
10462;BME280;5278;42.656;23.374;2023-03-19T08:05:53;95143.78;;;28.09;17.80
10462;BME280;5278;42.656;23.374;2023-03-19T08:08:21;95149.03;;;28.45;17.20
10462;BME280;5278;42.656;23.374;2023-03-19T08:10:52;95143.16;;;28.48;17.10
10462;BME280;5278;42.656;23.374;2023-03-19T08:13:20;95143.31;;;29.26;16.45
10462;BME280;5278;42.656;23.374;2023-03-19T08:15:48;95134.81;;;29.86;16.79
10462;BME280;5278;42.656;23.374;2023-03-19T08:18:16;95127.22;;;29.99;15.99
10462;BME280;5278;42.656;23.374;2023-03-19T08:20:43;95138.13;;;30.07;16.36
10462;BME280;5278;42.656;23.374;2023-03-19T08:23:11;95137.88;;;29.41;16.52
10462;BME280;5278;42.656;23.374;2023-03-19T08:25:38;95140.69;;;29.88;16.35
10462;BME280;5278;42.656;23.374;2023-03-19T08:28:07;95137.38;;;30.25;15.39
10462;BME280;5278;42.656;23.374;2023-03-19T08:30:35;95128.34;;;30.40;15.63
10462;BME280;5278;42.656;23.374;2023-03-19T08:33:02;95133.25;;;30.81;14.99
10462;BME280;5278;42.656;23.374;2023-03-19T08:35:37;95127.81;;;30.67;15.36
10462;BME280;5278;42.656;23.374;2023-03-19T08:38:04;95124.63;;;30.84;15.02
10462;BME280;5278;42.656;23.374;2023-03-19T08:40:31;95119.91;;;30.75;15.07
10462;BME280;5278;42.656;23.374;2023-03-19T08:42:59;95121.09;;;30.88;15.03
10462;BME280;5278;42.656;23.374;2023-03-19T08:45:27;95112.84;;;31.22;15.22
10462;BME280;5278;42.656;23.374;2023-03-19T08:47:55;95121.47;;;32.02;14.62
10462;BME280;5278;42.656;23.374;2023-03-19T08:50:23;95113.06;;;32.04;14.46
10462;BME280;5278;42.656;23.374;2023-03-19T08:52:50;95116.31;;;32.20;14.15
10462;BME280;5278;42.656;23.374;2023-03-19T08:55:17;95103.06;;;32.37;14.16
10462;BME280;5278;42.656;23.374;2023-03-19T08:57:44;95105.44;;;32.79;13.52
10462;BME280;5278;42.656;23.374;2023-03-19T09:00:13;95098.41;;;33.06;13.08
10462;BME280;5278;42.656;23.374;2023-03-19T09:02:42;95085.28;;;33.13;13.11
10462;BME280;5278;42.656;23.374;2023-03-19T09:05:09;95092.81;;;33.38;13.36
10462;BME280;5278;42.656;23.374;2023-03-19T09:07:35;95083.28;;;33.63;12.57
10462;BME280;5278;42.656;23.374;2023-03-19T09:10:04;95086.50;;;33.43;11.38
10462;BME280;5278;42.656;23.374;2023-03-19T09:12:34;95073.28;;;33.77;11.98
10462;BME280;5278;42.656;23.374;2023-03-19T09:15:00;95077.41;;;33.83;12.06
10462;BME280;5278;42.656;23.374;2023-03-19T09:17:28;95077.78;;;33.90;12.70
10462;BME280;5278;42.656;23.374;2023-03-19T09:19:57;95073.19;;;34.22;12.02
10462;BME280;5278;42.656;23.374;2023-03-19T09:22:25;95077.78;;;34.21;12.56
10462;BME280;5278;42.656;23.374;2023-03-19T09:24:52;95078.84;;;33.81;12.40
10462;BME280;5278;42.656;23.374;2023-03-19T09:27:20;95079.97;;;33.88;11.93
10462;BME280;5278;42.656;23.374;2023-03-19T09:29:47;95078.78;;;34.42;12.20
10462;BME280;5278;42.656;23.374;2023-03-19T09:32:14;95081.13;;;34.75;11.62
10462;BME280;5278;42.656;23.374;2023-03-19T09:34:41;95074.16;;;34.91;11.44
10462;BME280;5278;42.656;23.374;2023-03-19T09:37:10;95073.34;;;34.99;11.79
10462;BME280;5278;42.656;23.374;2023-03-19T09:39:37;95074.75;;;34.71;11.57
10462;BME280;5278;42.656;23.374;2023-03-19T09:42:15;95076.06;;;34.90;11.98
10462;BME280;5278;42.656;23.374;2023-03-19T09:44:45;95065.09;;;34.87;11.83
10462;BME280;5278;42.656;23.374;2023-03-19T09:47:24;95044.69;;;34.64;11.79
10462;BME280;5278;42.656;23.374;2023-03-19T09:49:55;95075.41;;;34.85;11.62
10462;BME280;5278;42.656;23.374;2023-03-19T09:52:35;95064.75;;;34.88;11.49
10462;BME280;5278;42.656;23.374;2023-03-19T09:55:13;95064.31;;;35.29;11.90
10462;BME280;5278;42.656;23.374;2023-03-19T09:57:44;95063.50;;;35.29;11.32
10462;BME280;5278;42.656;23.374;2023-03-19T10:00:19;95057.31;;;35.11;11.67
10462;BME280;5278;42.656;23.374;2023-03-19T10:02:52;95049.81;;;35.51;11.72
10462;BME280;5278;42.656;23.374;2023-03-19T10:05:26;95049.66;;;36.03;11.43
10462;BME280;5278;42.656;23.374;2023-03-19T10:08:23;95047.41;;;35.67;11.43
10462;BME280;5278;42.656;23.374;2023-03-19T10:11:07;95052.69;;;35.46;11.36
10462;BME280;5278;42.656;23.374;2023-03-19T10:13:51;95038.06;;;34.87;11.53
10462;BME280;5278;42.656;23.374;2023-03-19T10:16:24;95039.97;;;34.86;12.02
10462;BME280;5278;42.656;23.374;2023-03-19T10:18:55;95040.28;;;35.28;11.16
10462;BME280;5278;42.656;23.374;2023-03-19T10:21:28;95038.38;;;35.46;11.61
10462;BME280;5278;42.656;23.374;2023-03-19T10:24:00;95027.69;;;35.49;10.85
10462;BME280;5278;42.656;23.374;2023-03-19T10:26:29;95031.66;;;35.60;10.96
10462;BME280;5278;42.656;23.374;2023-03-19T10:29:03;95017.31;;;35.68;11.46
10462;BME280;5278;42.656;23.374;2023-03-19T10:31:41;94993.34;;;35.41;11.33
10462;BME280;5278;42.656;23.374;2023-03-19T10:34:26;95010.94;;;35.64;11.43
10462;BME280;5278;42.656;23.374;2023-03-19T10:36:58;95007.00;;;35.53;11.67
10462;BME280;5278;42.656;23.374;2023-03-19T10:39:27;95004.78;;;35.55;11.40
10462;BME280;5278;42.656;23.374;2023-03-19T10:42:02;95009.06;;;35.56;11.54
10462;BME280;5278;42.656;23.374;2023-03-19T10:44:36;94997.31;;;35.44;11.45
10462;BME280;5278;42.656;23.374;2023-03-19T10:47:09;94993.38;;;35.24;11.92
10462;BME280;5278;42.656;23.374;2023-03-19T10:49:37;94991.63;;;35.28;11.22
10462;BME280;5278;42.656;23.374;2023-03-19T10:52:06;94991.63;;;34.93;11.81
10462;BME280;5278;42.656;23.374;2023-03-19T10:54:44;94980.66;;;35.24;11.43
10462;BME280;5278;42.656;23.374;2023-03-19T10:57:22;94977.00;;;34.94;11.73
10462;BME280;5278;42.656;23.374;2023-03-19T10:59:49;94967.16;;;34.55;11.89
10462;BME280;5278;42.656;23.374;2023-03-19T11:02:19;94956.00;;;34.40;11.40
10462;BME280;5278;42.656;23.374;2023-03-19T11:04:47;94935.03;;;34.20;11.38
10462;BME280;5278;42.656;23.374;2023-03-19T11:07:18;94959.44;;;34.14;12.09
10462;BME280;5278;42.656;23.374;2023-03-19T11:09:48;94955.25;;;33.91;12.06
10462;BME280;5278;42.656;23.374;2023-03-19T11:12:18;94952.50;;;33.83;12.28
10462;BME280;5278;42.656;23.374;2023-03-19T11:14:46;94896.66;;;33.44;11.77
10462;BME280;5278;42.656;23.374;2023-03-19T11:17:21;94932.59;;;33.61;12.38
10462;BME280;5278;42.656;23.374;2023-03-19T11:19:52;94936.69;;;33.19;12.56
10462;BME280;5278;42.656;23.374;2023-03-19T11:22:22;94926.97;;;32.87;12.71
10462;BME280;5278;42.656;23.374;2023-03-19T11:24:53;94929.44;;;33.28;12.62
10462;BME280;5278;42.656;23.374;2023-03-19T11:27:29;94924.72;;;33.12;12.79
10462;BME280;5278;42.656;23.374;2023-03-19T11:29:57;94917.13;;;33.36;12.93
10462;BME280;5278;42.656;23.374;2023-03-19T11:32:52;94913.88;;;33.65;12.75
10462;BME280;5278;42.656;23.374;2023-03-19T11:35:25;94914.94;;;33.86;12.34
10462;BME280;5278;42.656;23.374;2023-03-19T11:37:56;94909.53;;;33.86;12.21
10462;BME280;5278;42.656;23.374;2023-03-19T11:40:34;94901.09;;;33.88;12.15
10462;BME280;5278;42.656;23.374;2023-03-19T11:43:20;94895.72;;;33.88;15.15
10462;BME280;5278;42.656;23.374;2023-03-19T11:45:58;94890.69;;;34.12;14.41
10462;BME280;5278;42.656;23.374;2023-03-19T11:48:36;94892.41;;;34.08;14.98
10462;BME280;5278;42.656;23.374;2023-03-19T11:51:08;94888.81;;;34.30;13.36
10462;BME280;5278;42.656;23.374;2023-03-19T11:53:41;94889.56;;;34.13;13.91
10462;BME280;5278;42.656;23.374;2023-03-19T11:56:19;94885.97;;;34.26;13.13
10462;BME280;5278;42.656;23.374;2023-03-19T11:58:57;94883.25;;;34.69;12.49
10462;BME280;5278;42.656;23.374;2023-03-19T12:02:02;94874.22;;;34.56;13.77
10462;BME280;5278;42.656;23.374;2023-03-19T12:04:57;94874.69;;;34.33;13.30
10462;BME280;5278;42.656;23.374;2023-03-19T12:07:32;94869.44;;;34.45;12.88
10462;BME280;5278;42.656;23.374;2023-03-19T12:10:21;94871.50;;;34.48;13.28
10462;BME280;5278;42.656;23.374;2023-03-19T12:12:59;94865.75;;;34.06;13.79
10462;BME280;5278;42.656;23.374;2023-03-19T12:15:35;94865.91;;;33.14;13.99
10462;BME280;5278;42.656;23.374;2023-03-19T12:18:14;94861.59;;;33.04;13.43
10462;BME280;5278;42.656;23.374;2023-03-19T12:20:54;94852.97;;;32.94;13.27
10462;BME280;5278;42.656;23.374;2023-03-19T12:23:31;94852.59;;;32.56;14.12
10462;BME280;5278;42.656;23.374;2023-03-19T12:26:04;94852.16;;;32.04;14.14
10462;BME280;5278;42.656;23.374;2023-03-19T12:28:41;94807.72;;;31.43;14.56
10462;BME280;5278;42.656;23.374;2023-03-19T12:34:35;94845.88;;;29.83;15.01
10462;BME280;5278;42.656;23.374;2023-03-19T12:37:13;94842.56;;;29.25;15.46
10462;BME280;5278;42.656;23.374;2023-03-19T12:39:49;94845.13;;;28.59;17.13
10462;BME280;5278;42.656;23.374;2023-03-19T12:42:20;94840.94;;;28.09;17.39
10462;BME280;5278;42.656;23.374;2023-03-19T12:44:55;94836.16;;;27.62;17.67
10462;BME280;5278;42.656;23.374;2023-03-19T12:47:26;94839.22;;;27.25;18.17
10462;BME280;5278;42.656;23.374;2023-03-19T12:49:58;94847.88;;;26.76;18.60
10462;BME280;5278;42.656;23.374;2023-03-19T12:52:30;94839.88;;;26.15;19.43
10462;BME280;5278;42.656;23.374;2023-03-19T12:55:04;94849.06;;;25.52;20.77
10462;BME280;5278;42.656;23.374;2023-03-19T12:57:36;94843.19;;;25.40;21.48
10462;BME280;5278;42.656;23.374;2023-03-19T13:00:12;94831.38;;;25.21;20.78
10462;BME280;5278;42.656;23.374;2023-03-19T13:02:46;94828.91;;;24.99;20.51
10462;BME280;5278;42.656;23.374;2023-03-19T13:05:30;94830.59;;;24.73;21.70
10462;BME280;5278;42.656;23.374;2023-03-19T13:08:02;94818.06;;;24.64;21.22
10462;BME280;5278;42.656;23.374;2023-03-19T13:10:34;94827.72;;;24.38;21.07
10462;BME280;5278;42.656;23.374;2023-03-19T13:13:09;94824.97;;;24.28;21.85
10462;BME280;5278;42.656;23.374;2023-03-19T13:15:44;94816.31;;;24.11;22.27
10462;BME280;5278;42.656;23.374;2023-03-19T13:18:20;94820.72;;;23.95;21.61
10462;BME280;5278;42.656;23.374;2023-03-19T13:21:00;94813.00;;;23.93;22.46
10462;BME280;5278;42.656;23.374;2023-03-19T13:23:34;94814.50;;;23.84;21.77